createdAt,value
2018-05-21T00:01:44.555Z,2.70
2018-05-21T00:04:11.964Z,1.90
2018-05-21T00:06:39.505Z,1.80
2018-05-21T00:09:06.918Z,1.80
2018-05-21T00:11:34.363Z,1.90
2018-05-21T00:14:02.182Z,2.27
2018-05-21T00:16:29.605Z,1.90
2018-05-21T00:18:56.990Z,1.90
2018-05-21T00:21:24.434Z,2.20
2018-05-21T00:23:51.856Z,1.60
2018-05-21T00:26:19.667Z,1.80
2018-05-21T00:28:47.172Z,2.03
2018-05-21T00:31:14.990Z,1.67
2018-05-21T00:33:42.400Z,1.80
2018-05-21T00:36:10.604Z,2.00
2018-05-21T00:38:38.023Z,1.90
2018-05-21T00:41:05.436Z,1.73
2018-05-21T00:43:32.881Z,1.90
2018-05-21T00:46:00.419Z,1.53
2018-05-21T00:48:27.866Z,1.80
2018-05-21T00:50:55.715Z,1.57
2018-05-21T00:53:23.291Z,1.60
2018-05-21T00:55:50.703Z,1.80
2018-05-21T00:58:18.123Z,1.60
2018-05-21T01:00:45.660Z,1.50
2018-05-21T01:03:13.093Z,1.60
2018-05-21T01:05:40.502Z,1.70
2018-05-21T01:08:11.750Z,1.73
2018-05-21T01:10:39.164Z,1.80
2018-05-21T01:13:06.692Z,1.37
2018-05-21T01:15:34.172Z,1.20
2018-05-21T01:18:01.656Z,1.63
2018-05-21T01:20:29.476Z,1.50
2018-05-21T01:22:57.531Z,1.43
2018-05-21T01:25:25.517Z,1.60
2018-05-21T01:27:52.949Z,1.30
2018-05-21T01:30:20.385Z,1.40
2018-05-21T01:32:48.348Z,1.17
2018-05-21T01:35:15.772Z,1.23
2018-05-21T01:37:43.344Z,1.10
2018-05-21T01:40:10.753Z,1.53
2018-05-21T01:42:38.206Z,1.20
2018-05-21T01:45:05.631Z,1.27
2018-05-21T01:47:33.452Z,1.40
2018-05-21T01:50:00.860Z,1.33
2018-05-21T01:52:28.661Z,1.73
2018-05-21T01:54:56.146Z,1.30
2018-05-21T01:57:23.523Z,1.20
2018-05-21T01:59:51.017Z,1.30
2018-05-21T02:02:18.852Z,1.20
2018-05-21T02:04:46.268Z,1.20
2018-05-21T02:07:13.643Z,1.20
2018-05-21T02:09:41.103Z,1.30
2018-05-21T02:12:08.548Z,1.20
2018-05-21T02:14:36.008Z,1.43
2018-05-21T02:17:03.402Z,1.40
2018-05-21T02:19:30.776Z,1.10
2018-05-21T02:21:58.615Z,1.50
2018-05-21T02:24:25.993Z,1.53
2018-05-21T02:26:53.791Z,1.13
2018-05-21T02:29:21.274Z,1.57
2018-05-21T02:31:48.667Z,1.73
2018-05-21T02:34:16.484Z,1.27
2018-05-21T02:36:43.845Z,0.93
2018-05-21T02:39:11.315Z,0.97
2018-05-21T02:41:38.744Z,1.10
2018-05-21T02:44:06.145Z,1.10
2018-05-21T02:46:33.536Z,1.23
2018-05-21T02:49:01.081Z,1.27
2018-05-21T02:51:28.860Z,1.30
2018-05-21T02:53:56.258Z,1.07
2018-05-21T02:56:23.753Z,1.50
2018-05-21T02:58:51.527Z,0.90
2018-05-21T03:01:19.389Z,1.50
2018-05-21T03:03:47.150Z,1.07
2018-05-21T03:06:14.579Z,1.13
2018-05-21T03:08:41.949Z,1.57
2018-05-21T03:11:09.365Z,1.33
2018-05-21T03:13:36.742Z,1.30
2018-05-21T03:16:04.111Z,1.40
2018-05-21T03:18:31.475Z,1.30
2018-05-21T03:20:58.845Z,1.50
2018-05-21T03:23:26.613Z,1.10
2018-05-21T03:25:54.430Z,1.40
2018-05-21T03:28:21.907Z,1.10
2018-05-21T03:30:49.291Z,1.20
2018-05-21T03:33:16.658Z,1.30
2018-05-21T03:35:44.043Z,1.10
2018-05-21T03:38:11.415Z,1.47
2018-05-21T03:40:38.783Z,1.60
2018-05-21T03:43:06.158Z,1.57
2018-05-21T03:45:33.665Z,1.50
2018-05-21T03:48:01.023Z,1.00
2018-05-21T03:50:28.379Z,1.37
2018-05-21T03:52:55.856Z,1.30
2018-05-21T03:55:23.274Z,1.27
2018-05-21T03:57:50.634Z,1.30
2018-05-21T04:00:34.896Z,1.13
2018-05-21T04:03:20.036Z,1.50
2018-05-21T04:05:47.929Z,1.50
2018-05-21T04:08:15.355Z,1.17
2018-05-21T04:10:43.107Z,1.50
2018-05-21T04:13:10.542Z,1.33
2018-05-21T04:15:37.903Z,1.30
2018-05-21T04:18:05.386Z,1.70
2018-05-21T04:20:33.133Z,1.10
2018-05-21T04:23:00.551Z,1.30
2018-05-21T04:25:27.936Z,1.07
2018-05-21T04:27:55.363Z,1.30
2018-05-21T04:30:22.853Z,1.20
2018-05-21T04:32:50.258Z,1.13
2018-05-21T04:35:17.639Z,1.53
2018-05-21T04:37:44.992Z,1.03
2018-05-21T04:40:12.361Z,1.00
2018-05-21T04:42:40.151Z,1.00
2018-05-21T04:45:07.506Z,1.27
2018-05-21T04:47:34.873Z,1.33
2018-05-21T04:50:02.971Z,1.33
2018-05-21T04:52:30.324Z,1.10
2018-05-21T04:54:57.675Z,1.20
2018-05-21T04:57:25.064Z,1.47
2018-05-21T04:59:52.422Z,1.30
2018-05-21T05:02:19.784Z,1.10
2018-05-21T05:04:47.165Z,1.33
2018-05-21T05:07:14.527Z,1.20
2018-05-21T05:09:41.918Z,1.50
2018-05-21T05:12:09.756Z,1.20
2018-05-21T05:14:37.528Z,1.23
2018-05-21T05:17:05.325Z,1.40
2018-05-21T05:19:32.686Z,1.60
2018-05-21T05:22:00.042Z,1.13
2018-05-21T05:24:27.428Z,1.10
2018-05-21T05:26:54.797Z,1.47
2018-05-21T05:29:22.157Z,1.40
2018-05-21T05:31:49.530Z,1.43
2018-05-21T05:34:17.603Z,1.50
2018-05-21T05:36:45.520Z,1.50
2018-05-21T05:39:12.884Z,1.60
2018-05-21T05:41:40.663Z,1.70
2018-05-21T05:44:08.027Z,1.30
2018-05-21T05:46:35.388Z,1.20
2018-05-21T05:49:03.193Z,1.30
2018-05-21T05:51:30.552Z,1.73
2018-05-21T05:53:57.925Z,1.57
2018-05-21T05:56:25.329Z,1.70
2018-05-21T05:58:53.080Z,1.80
2018-05-21T06:01:20.492Z,1.97
2018-05-21T06:03:47.842Z,1.57
2018-05-21T06:06:15.223Z,1.70
2018-05-21T06:08:42.593Z,1.50
2018-05-21T06:11:10.447Z,1.50
2018-05-21T06:13:37.824Z,1.70
2018-05-21T06:16:05.293Z,1.80
2018-05-21T06:18:32.764Z,1.63
2018-05-21T06:21:00.520Z,1.70
2018-05-21T06:23:28.269Z,1.83
2018-05-21T06:25:55.735Z,1.77
2018-05-21T06:28:23.030Z,1.80
2018-05-21T06:30:50.463Z,1.60
2018-05-21T06:33:18.227Z,1.77
2018-05-21T06:35:46.025Z,1.60
2018-05-21T06:38:13.405Z,1.63
2018-05-21T06:40:40.770Z,1.70
2018-05-21T06:43:09.560Z,1.20
2018-05-21T06:45:36.931Z,1.80
2018-05-21T06:48:04.309Z,2.00
2018-05-21T06:50:31.723Z,2.13
2018-05-21T06:52:59.087Z,1.70
2018-05-21T06:55:26.472Z,2.00
2018-05-21T06:57:54.276Z,1.70
2018-05-21T07:00:22.036Z,1.70
2018-05-21T07:02:49.511Z,2.00
2018-05-21T07:05:16.903Z,2.13
2018-05-21T07:07:44.730Z,1.60
2018-05-21T07:10:12.157Z,2.00
2018-05-21T07:12:40.049Z,2.27
2018-05-21T07:15:07.440Z,2.10
2018-05-21T07:17:34.895Z,1.90
2018-05-21T07:20:02.350Z,1.73
2018-05-21T07:22:29.825Z,1.87
2018-05-21T07:24:58.896Z,1.80
2018-05-21T07:27:26.446Z,1.70
2018-05-21T07:29:53.932Z,1.40
2018-05-21T07:32:21.788Z,1.93
2018-05-21T07:34:49.264Z,1.97
2018-05-21T07:37:17.542Z,1.77
2018-05-21T07:39:45.324Z,2.50
2018-05-21T07:42:12.874Z,1.90
2018-05-21T07:44:42.718Z,1.40
2018-05-21T07:47:10.103Z,1.83
2018-05-21T07:49:37.665Z,1.90
2018-05-21T07:52:05.170Z,1.83
2018-05-21T07:54:32.724Z,2.08
2018-05-21T07:57:00.767Z,2.20
2018-05-21T07:59:28.247Z,1.80
2018-05-21T08:01:56.054Z,2.22
2018-05-21T08:04:23.814Z,1.80
2018-05-21T08:06:54.783Z,1.73
2018-05-21T08:09:22.242Z,1.80
2018-05-21T08:11:49.660Z,1.50
2018-05-21T08:14:17.092Z,1.70
2018-05-21T08:16:44.525Z,1.92
2018-05-21T08:19:12.347Z,2.00
2018-05-21T08:21:39.834Z,1.50
2018-05-21T08:24:07.350Z,1.42
2018-05-21T08:26:37.982Z,1.87
2018-05-21T08:29:05.453Z,1.50
2018-05-21T08:31:32.931Z,2.00
2018-05-21T08:34:00.500Z,2.15
2018-05-21T08:36:28.368Z,2.00
2018-05-21T08:38:55.838Z,2.20
2018-05-21T08:41:23.281Z,2.10
2018-05-21T08:43:50.715Z,1.70
2018-05-21T08:46:18.230Z,1.75
2018-05-21T08:48:45.672Z,1.85
2018-05-21T08:51:13.283Z,1.75
2018-05-21T08:53:40.713Z,1.75
2018-05-21T08:56:08.643Z,1.33
2018-05-21T08:58:36.056Z,1.70
2018-05-21T09:01:03.589Z,2.62
2018-05-21T09:03:31.426Z,1.42
2018-05-21T09:05:58.842Z,2.05
2018-05-21T09:08:26.250Z,1.95
2018-05-21T09:10:53.776Z,1.85
2018-05-21T09:13:21.189Z,1.42
2018-05-21T09:15:49.002Z,1.80
2018-05-21T09:18:16.753Z,2.00
2018-05-21T09:20:44.156Z,1.77
2018-05-21T09:23:11.524Z,1.83
2018-05-21T09:25:38.893Z,1.52
2018-05-21T09:28:06.661Z,1.92
2018-05-21T09:30:34.462Z,1.75
2018-05-21T09:33:01.803Z,1.85
2018-05-21T09:35:29.159Z,1.73
2018-05-21T09:37:56.554Z,1.85
2018-05-21T09:40:23.912Z,1.70
2018-05-21T09:42:51.282Z,1.42
2018-05-21T09:45:18.679Z,1.60
2018-05-21T09:47:46.028Z,2.22
2018-05-21T09:50:13.490Z,2.12
2018-05-21T09:52:40.858Z,1.50
2018-05-21T09:55:08.275Z,1.60
2018-05-21T09:57:36.123Z,1.52
2018-05-21T10:00:03.603Z,1.77
2018-05-21T10:02:31.474Z,1.62
2018-05-21T10:04:58.882Z,1.90
2018-05-21T10:07:26.427Z,1.73
2018-05-21T10:09:53.928Z,1.87
2018-05-21T10:12:21.411Z,1.85
2018-05-21T10:14:49.181Z,2.00
2018-05-21T10:17:16.670Z,1.58
2018-05-21T10:19:44.131Z,1.55
2018-05-21T10:22:15.139Z,2.20
2018-05-21T10:24:42.684Z,1.60
2018-05-21T10:27:10.368Z,1.92
2018-05-21T10:29:37.806Z,2.00
2018-05-21T10:32:05.264Z,2.17
2018-05-21T10:34:33.085Z,2.35
2018-05-21T10:37:00.501Z,2.20
2018-05-21T10:39:27.976Z,2.20
2018-05-21T10:41:55.331Z,1.58
2018-05-21T10:44:22.779Z,1.73
2018-05-21T10:46:50.161Z,1.70
2018-05-21T10:49:17.550Z,1.80
2018-05-21T10:51:44.950Z,1.70
2018-05-21T10:54:13.445Z,1.70
2018-05-21T10:56:40.825Z,1.77
2018-05-21T10:59:08.297Z,2.30
2018-05-21T11:01:36.210Z,2.08
2018-05-21T11:04:03.723Z,2.05
2018-05-21T11:06:31.156Z,1.67
2018-05-21T11:08:58.609Z,1.80
2018-05-21T11:11:25.966Z,2.10
2018-05-21T11:13:53.476Z,1.67
2018-05-21T11:16:20.857Z,1.75
2018-05-21T11:18:48.256Z,1.50
2018-05-21T11:21:15.654Z,1.83
2018-05-21T11:23:43.435Z,1.95
2018-05-21T11:26:10.790Z,1.40
2018-05-21T11:28:38.240Z,1.70
2018-05-21T11:31:07.597Z,1.70
2018-05-21T11:33:34.971Z,1.80
2018-05-21T11:36:02.908Z,1.62
2018-05-21T11:38:30.262Z,1.60
2018-05-21T11:40:57.653Z,1.77
2018-05-21T11:43:25.020Z,1.92
2018-05-21T11:45:52.808Z,1.90
2018-05-21T11:48:20.175Z,1.98
2018-05-21T11:50:47.688Z,1.98
2018-05-21T11:53:15.036Z,1.42
2018-05-21T11:55:42.809Z,1.50
2018-05-21T11:58:10.590Z,1.67
2018-05-21T12:00:38.436Z,1.85
2018-05-21T12:03:05.821Z,1.75
2018-05-21T12:05:33.168Z,1.55
2018-05-21T12:08:02.984Z,1.80
2018-05-21T12:10:30.356Z,1.65
2018-05-21T12:12:57.746Z,1.80
2018-05-21T12:15:25.162Z,1.65
2018-05-21T12:17:52.540Z,1.50
2018-05-21T12:20:20.655Z,1.70
2018-05-21T12:22:48.158Z,1.90
2018-05-21T12:25:15.506Z,1.50
2018-05-21T12:27:43.144Z,1.87
2018-05-21T12:30:10.888Z,1.70
2018-05-21T12:32:38.591Z,1.85
2018-05-21T12:35:06.163Z,1.60
2018-05-21T12:37:33.515Z,1.77
2018-05-21T12:40:00.880Z,1.73
2018-05-21T12:42:28.333Z,1.70
2018-05-21T12:44:55.696Z,1.67
2018-05-21T12:47:23.106Z,1.70
2018-05-21T12:49:50.950Z,1.40
2018-05-21T12:52:18.386Z,1.50
2018-05-21T12:54:45.886Z,1.87
2018-05-21T12:57:13.355Z,1.65
2018-05-21T12:59:41.109Z,2.25
2018-05-21T13:02:08.957Z,2.28
2018-05-21T13:04:36.314Z,1.90
2018-05-21T13:07:03.799Z,1.80
2018-05-21T13:09:31.568Z,1.85
2018-05-21T13:11:59.332Z,1.80
2018-05-21T13:14:27.073Z,2.00
2018-05-21T13:16:54.505Z,1.60
2018-05-21T13:19:21.894Z,1.62
2018-05-21T13:21:49.747Z,1.90
2018-05-21T13:24:17.212Z,1.92
2018-05-21T13:26:44.900Z,1.67
2018-05-21T13:29:12.670Z,1.70
2018-05-21T13:31:40.078Z,1.90
2018-05-21T13:34:07.463Z,2.08
2018-05-21T13:36:35.235Z,1.92
2018-05-21T13:39:03.108Z,2.08
2018-05-21T13:41:30.469Z,1.80
2018-05-21T13:43:57.837Z,2.17
2018-05-21T13:46:25.188Z,2.10
2018-05-21T13:48:53.104Z,1.80
2018-05-21T13:51:20.492Z,1.67
2018-05-21T13:53:48.266Z,1.80
2018-05-21T13:56:15.748Z,2.25
2018-05-21T13:58:43.150Z,2.53
2018-05-21T14:01:10.505Z,2.00
2018-05-21T14:03:37.910Z,2.30
2018-05-21T14:06:05.354Z,1.83
2018-05-21T14:08:32.707Z,1.90
2018-05-21T14:11:00.080Z,1.75
2018-05-21T14:13:27.463Z,1.62
2018-05-21T14:15:54.862Z,1.87
2018-05-21T14:18:22.618Z,1.60
2018-05-21T14:20:50.374Z,1.83
2018-05-21T14:23:17.769Z,1.83
2018-05-21T14:25:45.249Z,1.98
2018-05-21T14:28:12.622Z,1.70
2018-05-21T14:30:39.983Z,1.80
2018-05-21T14:33:07.389Z,1.83
2018-05-21T14:35:34.831Z,1.90
2018-05-21T14:38:02.598Z,1.80
2018-05-21T14:40:30.379Z,1.70
2018-05-21T14:42:57.867Z,1.60
2018-05-21T14:45:25.223Z,1.87
2018-05-21T14:47:52.675Z,1.80
2018-05-21T14:50:20.046Z,2.08
2018-05-21T14:52:48.522Z,1.80
2018-05-21T14:55:18.372Z,1.70
2018-05-21T14:57:45.765Z,1.87
2018-05-21T15:00:13.137Z,1.90
2018-05-21T15:02:40.495Z,1.50
2018-05-21T15:05:07.869Z,2.03
2018-05-21T15:07:35.317Z,2.03
2018-05-21T15:10:02.760Z,2.00
2018-05-21T15:12:30.235Z,1.83
2018-05-21T15:14:57.604Z,1.92
2018-05-21T15:17:24.955Z,1.77
2018-05-21T15:19:52.437Z,1.98
2018-05-21T15:22:20.306Z,1.70
2018-05-21T15:24:47.598Z,1.77
2018-05-21T15:27:14.960Z,1.70
2018-05-21T15:29:42.312Z,2.12
2018-05-21T15:32:09.680Z,1.90
2018-05-21T15:34:37.053Z,1.85
2018-05-21T15:37:04.409Z,1.90
2018-05-21T15:39:31.787Z,1.80
2018-05-21T15:41:59.160Z,1.60
2018-05-21T15:44:26.912Z,1.73
2018-05-21T15:46:54.675Z,1.85
2018-05-21T15:49:22.424Z,1.70
2018-05-21T15:51:49.822Z,1.73
2018-05-21T15:54:17.182Z,1.73
2018-05-21T15:56:44.573Z,1.80
2018-05-21T15:59:11.919Z,1.83
2018-05-21T16:01:39.290Z,1.90
2018-05-21T16:04:06.674Z,1.77
2018-05-21T16:06:34.424Z,1.48
2018-05-21T16:09:01.787Z,2.00
2018-05-21T16:11:29.633Z,1.90
2018-05-21T16:13:56.982Z,1.87
2018-05-21T16:16:24.336Z,1.65
2018-05-21T16:18:51.744Z,1.83
2018-05-21T16:21:19.090Z,1.75
2018-05-21T16:23:46.830Z,1.62
2018-05-21T16:26:14.207Z,1.80
2018-05-21T16:28:41.986Z,1.70
2018-05-21T16:31:09.473Z,1.83
2018-05-21T16:33:36.819Z,1.42
2018-05-21T16:36:04.191Z,1.83
2018-05-21T16:38:31.560Z,1.70
2018-05-21T16:40:58.948Z,2.08
2018-05-21T16:43:26.305Z,1.77
2018-05-21T16:45:54.098Z,1.60
2018-05-21T16:48:21.879Z,1.62
2018-05-21T16:50:49.244Z,1.98
2018-05-21T16:53:18.641Z,1.60
2018-05-21T16:55:46.011Z,1.80
2018-05-21T16:58:13.438Z,1.80
2018-05-21T17:00:40.796Z,1.90
2018-05-21T17:03:08.167Z,1.55
2018-05-21T17:05:35.537Z,1.70
2018-05-21T17:08:02.902Z,2.00
2018-05-21T17:10:30.287Z,2.12
2018-05-21T17:12:58.043Z,2.12
2018-05-21T17:15:25.490Z,2.42
2018-05-21T17:17:52.857Z,2.05
2018-05-21T17:20:20.636Z,1.90
2018-05-21T17:22:48.806Z,2.00
2018-05-21T17:25:16.668Z,2.25
2018-05-21T17:27:44.417Z,2.30
2018-05-21T17:30:12.213Z,2.28
2018-05-21T17:32:39.579Z,2.30
2018-05-21T17:35:06.939Z,2.22
2018-05-21T17:37:34.326Z,2.70
2018-05-21T17:40:02.103Z,3.47
2018-05-21T17:42:29.516Z,3.00
2018-05-21T17:44:57.238Z,2.53
2018-05-21T17:47:29.788Z,2.42
2018-05-21T17:49:57.139Z,2.80
2018-05-21T17:52:24.702Z,1.90
2018-05-21T17:54:52.078Z,2.25
2018-05-21T17:57:19.436Z,2.40
2018-05-21T17:59:47.092Z,2.10
2018-05-21T18:02:14.444Z,2.03
2018-05-21T18:04:41.800Z,2.17
2018-05-21T18:07:09.186Z,2.25
2018-05-21T18:09:36.951Z,1.77
2018-05-21T18:12:05.159Z,1.87
2018-05-21T18:14:32.735Z,1.90
2018-05-21T18:17:00.110Z,1.80
2018-05-21T18:19:27.468Z,2.00
2018-05-21T18:21:54.849Z,1.85
2018-05-21T18:24:22.673Z,2.00
2018-05-21T18:26:50.062Z,1.80
2018-05-21T18:29:17.812Z,1.77
2018-05-21T18:31:45.600Z,2.00
2018-05-21T18:34:13.347Z,1.85
2018-05-21T18:36:40.693Z,2.15
2018-05-21T18:39:08.061Z,2.30
2018-05-21T18:41:35.453Z,2.25
2018-05-21T18:44:02.842Z,2.10
2018-05-21T18:46:30.238Z,2.50
2018-05-21T18:48:58.004Z,1.80
2018-05-21T18:51:25.824Z,1.77
2018-05-21T18:53:53.206Z,1.98
2018-05-21T18:56:20.593Z,2.03
2018-05-21T18:58:48.004Z,2.00
2018-05-21T19:01:15.361Z,1.80
2018-05-21T19:03:42.704Z,1.93
2018-05-21T19:06:10.105Z,1.90
2018-05-21T19:08:37.875Z,1.90
2018-05-21T19:11:05.876Z,2.10
2018-05-21T19:13:33.223Z,2.03
2018-05-21T19:16:00.596Z,2.20
2018-05-21T19:18:28.990Z,1.80
2018-05-21T19:20:56.375Z,2.00
2018-05-21T19:23:24.595Z,1.87
2018-05-21T19:25:52.129Z,1.70
2018-05-21T19:28:20.012Z,1.97
2018-05-21T19:30:47.647Z,2.10
2018-05-21T19:33:15.252Z,1.83
2018-05-21T19:35:42.648Z,1.90
2018-05-21T19:38:10.123Z,1.63
2018-05-21T19:40:38.136Z,1.87
2018-05-21T19:43:05.516Z,1.73
2018-05-21T19:45:33.112Z,1.70
2018-05-21T19:48:00.772Z,1.87
2018-05-21T19:50:28.540Z,1.70
2018-05-21T19:52:56.314Z,1.70
2018-05-21T19:55:24.039Z,1.80
2018-05-21T19:57:51.460Z,1.83
2018-05-21T20:00:18.833Z,1.90
2018-05-21T20:02:46.307Z,1.70
2018-05-21T20:05:13.703Z,1.57
2018-05-21T20:07:41.516Z,1.80
2018-05-21T20:10:09.114Z,1.80
2018-05-21T20:12:36.470Z,1.90
2018-05-21T20:15:03.849Z,1.93
2018-05-21T20:17:31.410Z,1.90
2018-05-21T20:19:58.972Z,1.70
2018-05-21T20:22:26.414Z,1.90
2018-05-21T20:24:54.330Z,1.70
2018-05-21T20:27:22.143Z,2.00
2018-05-21T20:29:49.904Z,2.00
2018-05-21T20:32:17.303Z,2.00
2018-05-21T20:34:44.698Z,1.70
2018-05-21T20:37:12.112Z,1.50
2018-05-21T20:39:39.490Z,1.70
2018-05-21T20:42:06.900Z,1.70
2018-05-21T20:44:34.699Z,1.83
2018-05-21T20:47:02.086Z,1.80
2018-05-21T20:49:29.526Z,1.80
2018-05-21T20:51:57.044Z,1.57
2018-05-21T20:54:24.563Z,1.87
2018-05-21T20:56:51.929Z,2.10
2018-05-21T20:59:19.306Z,1.60
2018-05-21T21:01:46.854Z,2.00
2018-05-21T21:04:14.679Z,1.73
2018-05-21T21:06:42.148Z,1.77
2018-05-21T21:09:09.651Z,2.00
2018-05-21T21:11:38.391Z,1.70
2018-05-21T21:14:05.777Z,1.70
2018-05-21T21:16:33.608Z,1.80
2018-05-21T21:19:01.279Z,1.50
2018-05-21T21:21:28.739Z,1.70
2018-05-21T21:23:56.194Z,1.30
2018-05-21T21:26:23.589Z,1.70
2018-05-21T21:28:54.609Z,1.90
2018-05-21T21:31:22.001Z,1.70
2018-05-21T21:33:49.358Z,1.77
2018-05-21T21:36:16.718Z,1.70
2018-05-21T21:38:44.240Z,1.90
2018-05-21T21:41:11.634Z,2.07
2018-05-21T21:43:39.010Z,2.13
2018-05-21T21:46:06.370Z,1.90
2018-05-21T21:48:33.765Z,1.73
2018-05-21T21:51:01.173Z,1.90
2018-05-21T21:53:28.533Z,1.77
2018-05-21T21:55:55.891Z,2.10
2018-05-21T21:58:23.500Z,2.20
2018-05-21T22:00:51.485Z,1.60
2018-05-21T22:03:18.890Z,1.60
2018-05-21T22:05:46.258Z,1.87
2018-05-21T22:08:13.637Z,1.63
2018-05-21T22:10:41.404Z,1.70
2018-05-21T22:13:09.214Z,1.90
2018-05-21T22:15:36.628Z,2.17
2018-05-21T22:18:04.284Z,1.97
2018-05-21T22:20:32.048Z,1.87
2018-05-21T22:22:59.933Z,1.90
2018-05-21T22:25:27.273Z,2.23
2018-05-21T22:27:55.195Z,1.57
2018-05-21T22:30:22.559Z,1.70
2018-05-21T22:32:50.028Z,1.60
2018-05-21T22:35:17.412Z,1.90
2018-05-21T22:37:45.198Z,1.60
2018-05-21T22:40:12.569Z,1.87
2018-05-21T22:42:40.395Z,1.77
2018-05-21T22:45:08.201Z,1.93
2018-05-21T22:47:36.043Z,1.90
2018-05-21T22:50:06.123Z,2.03
2018-05-21T22:52:33.813Z,1.80
2018-05-21T22:55:01.963Z,1.97
2018-05-21T22:57:29.321Z,2.03
2018-05-21T22:59:56.670Z,1.67
2018-05-21T23:02:24.084Z,1.67
2018-05-21T23:04:51.462Z,2.00
2018-05-21T23:07:18.888Z,2.00
2018-05-21T23:09:46.254Z,2.50
2018-05-21T23:12:13.622Z,2.00
2018-05-21T23:14:40.998Z,2.00
2018-05-21T23:17:08.353Z,2.07
2018-05-21T23:19:35.814Z,2.40
2018-05-21T23:22:03.325Z,1.80
2018-05-21T23:24:30.700Z,1.87
2018-05-21T23:26:58.057Z,1.70
2018-05-21T23:29:25.480Z,1.93
2018-05-21T23:31:53.262Z,1.93
2018-05-21T23:34:20.727Z,1.60
2018-05-21T23:36:48.147Z,1.93
2018-05-21T23:39:16.014Z,2.03
2018-05-21T23:41:43.928Z,1.90
2018-05-21T23:44:15.342Z,2.20
2018-05-21T23:46:43.211Z,1.67
2018-05-21T23:49:10.657Z,1.57
2018-05-21T23:51:38.217Z,1.80
2018-05-21T23:54:05.686Z,1.50
2018-05-21T23:56:33.571Z,1.93
2018-05-21T23:59:00.939Z,1.90
